sensor_id;sensor_type;location;lat;lon;timestamp;P1;durP1;ratioP1;P2;durP2;ratioP2
19617;SDS011;9956;51.006;13.670;2023-04-06T00:04:55;11.27;;;9.52;;
19617;SDS011;9956;51.006;13.670;2023-04-06T00:09:56;10.05;;;9.00;;
19617;SDS011;9956;51.006;13.670;2023-04-06T00:15:00;10.70;;;7.20;;
19617;SDS011;9956;51.006;13.670;2023-04-06T00:20:01;8.82;;;6.95;;
19617;SDS011;9956;51.006;13.670;2023-04-06T00:25:02;8.98;;;7.45;;
19617;SDS011;9956;51.006;13.670;2023-04-06T00:30:06;10.50;;;7.57;;
19617;SDS011;9956;51.006;13.670;2023-04-06T00:35:07;10.43;;;7.63;;
19617;SDS011;9956;51.006;13.670;2023-04-06T00:40:08;9.32;;;7.93;;
19617;SDS011;9956;51.006;13.670;2023-04-06T00:45:09;9.70;;;7.10;;
19617;SDS011;9956;51.006;13.670;2023-04-06T00:50:10;10.82;;;6.60;;
19617;SDS011;9956;51.006;13.670;2023-04-06T00:55:10;8.93;;;6.82;;
19617;SDS011;9956;51.006;13.670;2023-04-06T01:00:16;7.90;;;6.68;;
19617;SDS011;9956;51.006;13.670;2023-04-06T01:05:19;8.38;;;6.53;;
19617;SDS011;9956;51.006;13.670;2023-04-06T01:10:30;7.53;;;6.32;;
19617;SDS011;9956;51.006;13.670;2023-04-06T01:15:42;7.53;;;6.20;;
19617;SDS011;9956;51.006;13.670;2023-04-06T01:20:47;7.30;;;6.53;;
19617;SDS011;9956;51.006;13.670;2023-04-06T01:25:49;7.50;;;6.70;;
19617;SDS011;9956;51.006;13.670;2023-04-06T01:30:50;10.75;;;6.57;;
19617;SDS011;9956;51.006;13.670;2023-04-06T01:36:14;8.07;;;6.28;;
19617;SDS011;9956;51.006;13.670;2023-04-06T01:41:16;7.35;;;5.38;;
19617;SDS011;9956;51.006;13.670;2023-04-06T01:46:22;9.25;;;5.57;;
19617;SDS011;9956;51.006;13.670;2023-04-06T01:51:23;9.57;;;7.40;;
19617;SDS011;9956;51.006;13.670;2023-04-06T01:56:29;6.90;;;5.88;;
19617;SDS011;9956;51.006;13.670;2023-04-06T02:01:38;7.60;;;5.88;;
19617;SDS011;9956;51.006;13.670;2023-04-06T02:06:38;9.10;;;6.38;;
19617;SDS011;9956;51.006;13.670;2023-04-06T02:11:41;7.38;;;5.82;;
19617;SDS011;9956;51.006;13.670;2023-04-06T02:16:42;5.97;;;5.40;;
19617;SDS011;9956;51.006;13.670;2023-04-06T02:21:42;8.20;;;6.32;;
19617;SDS011;9956;51.006;13.670;2023-04-06T02:26:43;7.47;;;6.00;;
19617;SDS011;9956;51.006;13.670;2023-04-06T02:31:44;9.55;;;7.13;;
19617;SDS011;9956;51.006;13.670;2023-04-06T02:36:44;9.03;;;7.00;;
19617;SDS011;9956;51.006;13.670;2023-04-06T02:41:45;10.07;;;7.05;;
19617;SDS011;9956;51.006;13.670;2023-04-06T02:46:49;8.80;;;6.43;;
19617;SDS011;9956;51.006;13.670;2023-04-06T02:51:50;9.45;;;5.90;;
19617;SDS011;9956;51.006;13.670;2023-04-06T02:56:59;9.57;;;6.33;;
19617;SDS011;9956;51.006;13.670;2023-04-06T03:02:08;8.80;;;6.05;;
19617;SDS011;9956;51.006;13.670;2023-04-06T03:07:09;7.35;;;5.95;;
19617;SDS011;9956;51.006;13.670;2023-04-06T03:12:18;8.77;;;6.50;;
19617;SDS011;9956;51.006;13.670;2023-04-06T03:17:43;8.70;;;7.32;;
19617;SDS011;9956;51.006;13.670;2023-04-06T03:23:01;8.38;;;6.85;;
19617;SDS011;9956;51.006;13.670;2023-04-06T03:28:08;10.38;;;7.30;;
19617;SDS011;9956;51.006;13.670;2023-04-06T03:33:16;7.95;;;6.43;;
19617;SDS011;9956;51.006;13.670;2023-04-06T03:38:26;10.43;;;6.78;;
19617;SDS011;9956;51.006;13.670;2023-04-06T03:43:27;12.00;;;7.27;;
19617;SDS011;9956;51.006;13.670;2023-04-06T03:48:28;9.27;;;7.07;;
19617;SDS011;9956;51.006;13.670;2023-04-06T03:53:29;7.13;;;6.43;;
19617;SDS011;9956;51.006;13.670;2023-04-06T03:58:30;18.45;;;10.23;;
19617;SDS011;9956;51.006;13.670;2023-04-06T04:03:31;13.00;;;10.33;;
19617;SDS011;9956;51.006;13.670;2023-04-06T04:08:31;17.08;;;10.45;;
19617;SDS011;9956;51.006;13.670;2023-04-06T04:13:32;14.80;;;9.93;;
19617;SDS011;9956;51.006;13.670;2023-04-06T04:18:33;14.97;;;10.23;;
19617;SDS011;9956;51.006;13.670;2023-04-06T04:23:34;11.30;;;7.73;;
19617;SDS011;9956;51.006;13.670;2023-04-06T04:28:35;11.47;;;7.97;;
19617;SDS011;9956;51.006;13.670;2023-04-06T04:33:35;12.37;;;8.93;;
19617;SDS011;9956;51.006;13.670;2023-04-06T04:38:42;9.67;;;7.40;;
19617;SDS011;9956;51.006;13.670;2023-04-06T04:43:42;14.17;;;8.17;;
19617;SDS011;9956;51.006;13.670;2023-04-06T04:48:45;8.43;;;7.33;;
19617;SDS011;9956;51.006;13.670;2023-04-06T04:53:46;13.68;;;11.10;;
19617;SDS011;9956;51.006;13.670;2023-04-06T04:58:55;14.18;;;10.00;;
19617;SDS011;9956;51.006;13.670;2023-04-06T05:03:58;10.67;;;9.57;;
19617;SDS011;9956;51.006;13.670;2023-04-06T05:08:58;12.83;;;11.03;;
19617;SDS011;9956;51.006;13.670;2023-04-06T05:14:00;14.87;;;10.87;;
19617;SDS011;9956;51.006;13.670;2023-04-06T05:19:01;12.85;;;10.00;;
19617;SDS011;9956;51.006;13.670;2023-04-06T05:24:10;11.77;;;9.38;;
19617;SDS011;9956;51.006;13.670;2023-04-06T05:29:13;10.07;;;8.98;;
19617;SDS011;9956;51.006;13.670;2023-04-06T05:34:14;11.75;;;9.60;;
19617;SDS011;9956;51.006;13.670;2023-04-06T05:39:15;14.23;;;8.85;;
19617;SDS011;9956;51.006;13.670;2023-04-06T05:44:19;13.05;;;8.82;;
19617;SDS011;9956;51.006;13.670;2023-04-06T05:49:26;13.13;;;8.50;;
19617;SDS011;9956;51.006;13.670;2023-04-06T05:54:27;12.73;;;8.90;;
19617;SDS011;9956;51.006;13.670;2023-04-06T05:59:33;10.55;;;8.43;;
19617;SDS011;9956;51.006;13.670;2023-04-06T06:04:34;15.68;;;9.93;;
19617;SDS011;9956;51.006;13.670;2023-04-06T06:09:35;13.00;;;9.50;;
19617;SDS011;9956;51.006;13.670;2023-04-06T06:14:50;10.60;;;9.05;;
19617;SDS011;9956;51.006;13.670;2023-04-06T06:19:52;9.30;;;7.60;;
19617;SDS011;9956;51.006;13.670;2023-04-06T06:24:58;8.85;;;7.30;;
19617;SDS011;9956;51.006;13.670;2023-04-06T06:29:59;8.75;;;7.85;;
19617;SDS011;9956;51.006;13.670;2023-04-06T06:35:04;10.82;;;8.35;;
19617;SDS011;9956;51.006;13.670;2023-04-06T06:40:05;16.80;;;14.75;;
19617;SDS011;9956;51.006;13.670;2023-04-06T06:45:09;23.05;;;18.52;;
19617;SDS011;9956;51.006;13.670;2023-04-06T06:50:10;16.23;;;12.35;;
19617;SDS011;9956;51.006;13.670;2023-04-06T06:55:10;11.40;;;9.05;;
19617;SDS011;9956;51.006;13.670;2023-04-06T07:00:12;8.20;;;6.22;;
19617;SDS011;9956;51.006;13.670;2023-04-06T07:05:15;8.15;;;5.93;;
19617;SDS011;9956;51.006;13.670;2023-04-06T07:10:15;8.20;;;5.82;;
19617;SDS011;9956;51.006;13.670;2023-04-06T07:15:16;9.27;;;5.95;;
19617;SDS011;9956;51.006;13.670;2023-04-06T07:20:18;9.88;;;5.95;;
19617;SDS011;9956;51.006;13.670;2023-04-06T07:25:20;8.52;;;7.13;;
19617;SDS011;9956;51.006;13.670;2023-04-06T07:30:21;15.02;;;12.48;;
19617;SDS011;9956;51.006;13.670;2023-04-06T07:35:23;11.27;;;8.82;;
19617;SDS011;9956;51.006;13.670;2023-04-06T07:40:24;6.90;;;6.25;;
19617;SDS011;9956;51.006;13.670;2023-04-06T07:45:27;10.38;;;9.52;;
19617;SDS011;9956;51.006;13.670;2023-04-06T07:50:29;8.20;;;6.88;;
19617;SDS011;9956;51.006;13.670;2023-04-06T07:55:31;6.88;;;5.35;;
19617;SDS011;9956;51.006;13.670;2023-04-06T08:00:31;6.43;;;4.78;;
19617;SDS011;9956;51.006;13.670;2023-04-06T08:05:32;4.20;;;3.78;;
19617;SDS011;9956;51.006;13.670;2023-04-06T08:10:32;5.78;;;5.05;;
19617;SDS011;9956;51.006;13.670;2023-04-06T08:15:34;5.72;;;4.50;;
19617;SDS011;9956;51.006;13.670;2023-04-06T08:20:35;6.55;;;4.60;;
19617;SDS011;9956;51.006;13.670;2023-04-06T08:25:35;7.07;;;4.88;;
19617;SDS011;9956;51.006;13.670;2023-04-06T08:30:39;8.50;;;5.28;;
19617;SDS011;9956;51.006;13.670;2023-04-06T08:35:46;4.88;;;4.30;;
19617;SDS011;9956;51.006;13.670;2023-04-06T08:40:46;5.75;;;5.05;;
19617;SDS011;9956;51.006;13.670;2023-04-06T08:45:48;4.82;;;4.00;;
19617;SDS011;9956;51.006;13.670;2023-04-06T08:50:48;8.02;;;7.20;;
19617;SDS011;9956;51.006;13.670;2023-04-06T08:55:49;5.63;;;4.57;;
19617;SDS011;9956;51.006;13.670;2023-04-06T09:00:51;5.47;;;4.63;;
19617;SDS011;9956;51.006;13.670;2023-04-06T09:05:52;5.03;;;4.25;;
19617;SDS011;9956;51.006;13.670;2023-04-06T09:10:53;7.75;;;5.00;;
19617;SDS011;9956;51.006;13.670;2023-04-06T09:16:03;4.75;;;4.35;;
19617;SDS011;9956;51.006;13.670;2023-04-06T09:21:05;4.82;;;4.28;;
19617;SDS011;9956;51.006;13.670;2023-04-06T09:26:06;4.43;;;4.03;;
19617;SDS011;9956;51.006;13.670;2023-04-06T09:36:52;3.95;;;3.60;;
19617;SDS011;9956;51.006;13.670;2023-04-06T09:41:53;4.65;;;3.80;;
19617;SDS011;9956;51.006;13.670;2023-04-06T09:46:54;3.90;;;3.50;;
19617;SDS011;9956;51.006;13.670;2023-04-06T09:51:59;5.13;;;3.78;;
19617;SDS011;9956;51.006;13.670;2023-04-06T10:02:02;6.38;;;4.25;;
19617;SDS011;9956;51.006;13.670;2023-04-06T10:07:06;4.88;;;4.38;;
19617;SDS011;9956;51.006;13.670;2023-04-06T10:12:08;5.38;;;4.60;;
19617;SDS011;9956;51.006;13.670;2023-04-06T10:17:09;5.10;;;4.43;;
19617;SDS011;9956;51.006;13.670;2023-04-06T10:22:12;4.68;;;3.97;;
19617;SDS011;9956;51.006;13.670;2023-04-06T10:27:29;5.60;;;4.00;;
19617;SDS011;9956;51.006;13.670;2023-04-06T10:43:07;4.43;;;3.45;;
19617;SDS011;9956;51.006;13.670;2023-04-06T10:48:15;4.35;;;3.60;;
19617;SDS011;9956;51.006;13.670;2023-04-06T10:53:25;5.18;;;4.68;;
19617;SDS011;9956;51.006;13.670;2023-04-06T10:58:27;7.50;;;6.00;;
19617;SDS011;9956;51.006;13.670;2023-04-06T11:03:27;4.40;;;3.78;;
19617;SDS011;9956;51.006;13.670;2023-04-06T11:08:30;4.35;;;4.03;;
19617;SDS011;9956;51.006;13.670;2023-04-06T11:13:50;4.85;;;4.22;;
19617;SDS011;9956;51.006;13.670;2023-04-06T11:19:02;4.47;;;4.00;;
19617;SDS011;9956;51.006;13.670;2023-04-06T11:24:06;6.10;;;4.28;;
19617;SDS011;9956;51.006;13.670;2023-04-06T11:29:07;5.03;;;4.63;;
19617;SDS011;9956;51.006;13.670;2023-04-06T11:34:09;5.72;;;5.07;;
19617;SDS011;9956;51.006;13.670;2023-04-06T11:39:11;4.68;;;3.80;;
19617;SDS011;9956;51.006;13.670;2023-04-06T11:44:30;6.30;;;4.15;;
19617;SDS011;9956;51.006;13.670;2023-04-06T11:49:33;4.05;;;3.65;;
19617;SDS011;9956;51.006;13.670;2023-04-06T11:54:37;4.03;;;3.72;;
19617;SDS011;9956;51.006;13.670;2023-04-06T11:59:38;4.20;;;3.80;;
19617;SDS011;9956;51.006;13.670;2023-04-06T12:04:38;6.03;;;5.47;;
19617;SDS011;9956;51.006;13.670;2023-04-06T12:09:39;5.60;;;4.43;;
19617;SDS011;9956;51.006;13.670;2023-04-06T12:14:40;4.78;;;4.38;;
19617;SDS011;9956;51.006;13.670;2023-04-06T12:19:40;5.18;;;4.00;;
19617;SDS011;9956;51.006;13.670;2023-04-06T12:24:41;5.35;;;4.95;;
19617;SDS011;9956;51.006;13.670;2023-04-06T12:29:41;4.00;;;3.70;;
19617;SDS011;9956;51.006;13.670;2023-04-06T12:34:42;4.30;;;3.90;;
19617;SDS011;9956;51.006;13.670;2023-04-06T12:39:42;4.55;;;4.13;;
19617;SDS011;9956;51.006;13.670;2023-04-06T12:44:44;4.82;;;4.30;;
19617;SDS011;9956;51.006;13.670;2023-04-06T12:49:45;5.03;;;4.47;;
19617;SDS011;9956;51.006;13.670;2023-04-06T12:54:46;5.88;;;3.83;;
19617;SDS011;9956;51.006;13.670;2023-04-06T12:59:47;4.47;;;4.07;;
19617;SDS011;9956;51.006;13.670;2023-04-06T13:04:48;4.55;;;3.75;;
19617;SDS011;9956;51.006;13.670;2023-04-06T13:09:48;4.75;;;4.00;;
19617;SDS011;9956;51.006;13.670;2023-04-06T13:14:49;4.00;;;3.67;;
19617;SDS011;9956;51.006;13.670;2023-04-06T13:19:52;4.05;;;3.63;;
19617;SDS011;9956;51.006;13.670;2023-04-06T13:24:53;6.82;;;5.30;;
19617;SDS011;9956;51.006;13.670;2023-04-06T13:29:54;5.30;;;4.50;;
19617;SDS011;9956;51.006;13.670;2023-04-06T13:34:56;4.72;;;4.30;;
19617;SDS011;9956;51.006;13.670;2023-04-06T13:39:57;5.75;;;4.30;;
19617;SDS011;9956;51.006;13.670;2023-04-06T13:44:58;4.97;;;4.45;;
19617;SDS011;9956;51.006;13.670;2023-04-06T13:49:59;4.60;;;4.20;;
19617;SDS011;9956;51.006;13.670;2023-04-06T13:55:00;4.38;;;4.00;;
19617;SDS011;9956;51.006;13.670;2023-04-06T14:00:00;5.50;;;5.00;;
19617;SDS011;9956;51.006;13.670;2023-04-06T14:05:01;4.93;;;3.90;;
19617;SDS011;9956;51.006;13.670;2023-04-06T14:10:01;4.30;;;3.90;;
19617;SDS011;9956;51.006;13.670;2023-04-06T14:15:02;4.60;;;4.20;;
19617;SDS011;9956;51.006;13.670;2023-04-06T14:20:04;4.63;;;4.18;;
19617;SDS011;9956;51.006;13.670;2023-04-06T14:25:06;4.53;;;4.13;;
19617;SDS011;9956;51.006;13.670;2023-04-06T14:30:07;5.72;;;4.40;;
19617;SDS011;9956;51.006;13.670;2023-04-06T14:35:08;4.50;;;4.10;;
19617;SDS011;9956;51.006;13.670;2023-04-06T14:40:09;3.85;;;3.55;;
19617;SDS011;9956;51.006;13.670;2023-04-06T14:45:09;4.95;;;3.85;;
19617;SDS011;9956;51.006;13.670;2023-04-06T14:50:10;5.10;;;4.60;;
19617;SDS011;9956;51.006;13.670;2023-04-06T14:55:11;5.45;;;4.68;;
19617;SDS011;9956;51.006;13.670;2023-04-06T15:00:17;8.02;;;7.43;;
19617;SDS011;9956;51.006;13.670;2023-04-06T15:05:18;5.82;;;4.35;;
19617;SDS011;9956;51.006;13.670;2023-04-06T15:10:19;5.40;;;4.85;;
19617;SDS011;9956;51.006;13.670;2023-04-06T15:15:19;6.55;;;4.72;;
19617;SDS011;9956;51.006;13.670;2023-04-06T15:20:20;5.90;;;4.85;;
19617;SDS011;9956;51.006;13.670;2023-04-06T15:25:20;5.63;;;5.20;;
19617;SDS011;9956;51.006;13.670;2023-04-06T15:30:21;4.13;;;3.72;;
19617;SDS011;9956;51.006;13.670;2023-04-06T15:35:22;5.28;;;4.80;;
19617;SDS011;9956;51.006;13.670;2023-04-06T15:40:23;5.68;;;5.28;;
19617;SDS011;9956;51.006;13.670;2023-04-06T15:45:24;5.35;;;4.38;;
19617;SDS011;9956;51.006;13.670;2023-04-06T15:50:24;7.53;;;6.30;;
19617;SDS011;9956;51.006;13.670;2023-04-06T15:55:25;6.28;;;5.32;;
19617;SDS011;9956;51.006;13.670;2023-04-06T16:00:25;6.63;;;5.68;;
19617;SDS011;9956;51.006;13.670;2023-04-06T16:05:28;9.85;;;7.72;;
19617;SDS011;9956;51.006;13.670;2023-04-06T16:10:30;5.32;;;4.82;;
19617;SDS011;9956;51.006;13.670;2023-04-06T16:15:32;5.47;;;4.65;;
19617;SDS011;9956;51.006;13.670;2023-04-06T16:20:34;5.68;;;4.68;;
19617;SDS011;9956;51.006;13.670;2023-04-06T16:26:09;9.98;;;7.93;;
19617;SDS011;9956;51.006;13.670;2023-04-06T16:31:20;18.02;;;13.45;;
19617;SDS011;9956;51.006;13.670;2023-04-06T16:36:22;63.47;;;34.05;;
19617;SDS011;9956;51.006;13.670;2023-04-06T16:41:27;5.55;;;4.95;;
19617;SDS011;9956;51.006;13.670;2023-04-06T16:46:28;29.92;;;22.85;;
19617;SDS011;9956;51.006;13.670;2023-04-06T16:51:32;5.30;;;4.78;;
19617;SDS011;9956;51.006;13.670;2023-04-06T16:56:33;19.58;;;15.63;;
19617;SDS011;9956;51.006;13.670;2023-04-06T17:01:33;12.00;;;10.80;;
19617;SDS011;9956;51.006;13.670;2023-04-06T17:06:34;7.63;;;6.82;;
19617;SDS011;9956;51.006;13.670;2023-04-06T17:11:34;5.95;;;5.35;;
19617;SDS011;9956;51.006;13.670;2023-04-06T17:16:35;8.73;;;7.82;;
19617;SDS011;9956;51.006;13.670;2023-04-06T17:21:35;12.35;;;11.05;;
19617;SDS011;9956;51.006;13.670;2023-04-06T17:26:36;9.95;;;9.00;;
19617;SDS011;9956;51.006;13.670;2023-04-06T17:31:36;8.15;;;7.35;;
19617;SDS011;9956;51.006;13.670;2023-04-06T17:36:38;6.43;;;5.88;;
19617;SDS011;9956;51.006;13.670;2023-04-06T17:41:39;10.27;;;7.78;;
19617;SDS011;9956;51.006;13.670;2023-04-06T17:46:39;9.48;;;7.53;;
19617;SDS011;9956;51.006;13.670;2023-04-06T17:51:40;11.45;;;10.20;;
19617;SDS011;9956;51.006;13.670;2023-04-06T17:56:40;9.00;;;8.10;;
19617;SDS011;9956;51.006;13.670;2023-04-06T18:01:50;6.43;;;5.82;;
19617;SDS011;9956;51.006;13.670;2023-04-06T18:06:50;23.85;;;16.88;;
19617;SDS011;9956;51.006;13.670;2023-04-06T18:11:51;10.77;;;9.35;;
19617;SDS011;9956;51.006;13.670;2023-04-06T18:16:51;11.13;;;8.02;;
19617;SDS011;9956;51.006;13.670;2023-04-06T18:22:03;7.32;;;6.53;;
19617;SDS011;9956;51.006;13.670;2023-04-06T18:27:11;17.35;;;12.80;;
19617;SDS011;9956;51.006;13.670;2023-04-06T18:32:15;13.50;;;10.02;;
19617;SDS011;9956;51.006;13.670;2023-04-06T18:37:15;37.00;;;24.88;;
19617;SDS011;9956;51.006;13.670;2023-04-06T18:42:16;30.45;;;23.23;;
19617;SDS011;9956;51.006;13.670;2023-04-06T18:47:19;14.13;;;11.23;;
19617;SDS011;9956;51.006;13.670;2023-04-06T18:52:20;12.10;;;9.80;;
19617;SDS011;9956;51.006;13.670;2023-04-06T18:57:21;31.55;;;23.15;;
19617;SDS011;9956;51.006;13.670;2023-04-06T19:02:22;32.83;;;24.70;;
19617;SDS011;9956;51.006;13.670;2023-04-06T19:07:22;17.50;;;14.45;;
19617;SDS011;9956;51.006;13.670;2023-04-06T19:12:22;15.30;;;11.77;;
19617;SDS011;9956;51.006;13.670;2023-04-06T19:17:23;12.80;;;10.43;;
19617;SDS011;9956;51.006;13.670;2023-04-06T19:22:23;9.95;;;8.20;;
19617;SDS011;9956;51.006;13.670;2023-04-06T19:27:24;10.00;;;9.00;;
19617;SDS011;9956;51.006;13.670;2023-04-06T19:32:25;9.75;;;8.70;;
19617;SDS011;9956;51.006;13.670;2023-04-06T19:37:26;11.13;;;9.60;;
19617;SDS011;9956;51.006;13.670;2023-04-06T19:42:26;13.48;;;10.73;;
19617;SDS011;9956;51.006;13.670;2023-04-06T19:47:27;12.10;;;9.52;;
19617;SDS011;9956;51.006;13.670;2023-04-06T19:52:27;11.65;;;9.52;;
19617;SDS011;9956;51.006;13.670;2023-04-06T19:57:27;13.63;;;10.48;;
19617;SDS011;9956;51.006;13.670;2023-04-06T20:02:28;13.73;;;12.32;;
19617;SDS011;9956;51.006;13.670;2023-04-06T20:07:29;11.80;;;10.40;;
19617;SDS011;9956;51.006;13.670;2023-04-06T20:12:29;13.85;;;11.80;;
19617;SDS011;9956;51.006;13.670;2023-04-06T20:17:29;15.82;;;12.43;;
19617;SDS011;9956;51.006;13.670;2023-04-06T20:22:30;16.45;;;13.90;;
19617;SDS011;9956;51.006;13.670;2023-04-06T20:27:30;15.07;;;13.23;;
19617;SDS011;9956;51.006;13.670;2023-04-06T20:32:31;15.38;;;13.40;;
19617;SDS011;9956;51.006;13.670;2023-04-06T20:37:33;15.48;;;12.52;;
19617;SDS011;9956;51.006;13.670;2023-04-06T20:42:34;14.82;;;13.23;;
19617;SDS011;9956;51.006;13.670;2023-04-06T20:47:36;14.60;;;13.07;;
19617;SDS011;9956;51.006;13.670;2023-04-06T20:52:36;17.50;;;13.70;;
19617;SDS011;9956;51.006;13.670;2023-04-06T20:57:37;15.35;;;12.75;;
19617;SDS011;9956;51.006;13.670;2023-04-06T21:02:37;16.08;;;12.52;;
19617;SDS011;9956;51.006;13.670;2023-04-06T21:07:38;14.10;;;12.60;;
19617;SDS011;9956;51.006;13.670;2023-04-06T21:12:38;13.88;;;12.27;;
19617;SDS011;9956;51.006;13.670;2023-04-06T21:17:39;14.38;;;12.18;;
19617;SDS011;9956;51.006;13.670;2023-04-06T21:22:39;15.10;;;12.40;;
19617;SDS011;9956;51.006;13.670;2023-04-06T21:27:40;13.63;;;11.98;;
19617;SDS011;9956;51.006;13.670;2023-04-06T21:32:40;15.13;;;13.18;;
19617;SDS011;9956;51.006;13.670;2023-04-06T21:37:41;15.95;;;12.10;;
19617;SDS011;9956;51.006;13.670;2023-04-06T21:42:41;15.20;;;13.32;;
19617;SDS011;9956;51.006;13.670;2023-04-06T21:47:41;14.68;;;13.13;;
19617;SDS011;9956;51.006;13.670;2023-04-06T21:52:42;15.65;;;12.32;;
19617;SDS011;9956;51.006;13.670;2023-04-06T21:57:43;16.42;;;13.45;;
19617;SDS011;9956;51.006;13.670;2023-04-06T22:02:44;14.73;;;13.10;;
19617;SDS011;9956;51.006;13.670;2023-04-06T22:07:44;16.23;;;12.95;;
19617;SDS011;9956;51.006;13.670;2023-04-06T22:12:45;15.13;;;13.55;;
19617;SDS011;9956;51.006;13.670;2023-04-06T22:17:48;13.98;;;12.30;;
19617;SDS011;9956;51.006;13.670;2023-04-06T22:22:49;15.50;;;12.90;;
19617;SDS011;9956;51.006;13.670;2023-04-06T22:27:49;16.13;;;13.23;;
19617;SDS011;9956;51.006;13.670;2023-04-06T22:32:50;15.20;;;13.25;;
19617;SDS011;9956;51.006;13.670;2023-04-06T22:37:50;16.65;;;13.25;;
19617;SDS011;9956;51.006;13.670;2023-04-06T22:42:51;14.73;;;13.27;;
19617;SDS011;9956;51.006;13.670;2023-04-06T22:47:51;14.75;;;12.88;;
19617;SDS011;9956;51.006;13.670;2023-04-06T22:52:52;14.55;;;13.00;;
19617;SDS011;9956;51.006;13.670;2023-04-06T22:57:52;16.55;;;13.27;;
19617;SDS011;9956;51.006;13.670;2023-04-06T23:02:53;16.73;;;13.60;;
19617;SDS011;9956;51.006;13.670;2023-04-06T23:07:53;14.90;;;12.93;;
19617;SDS011;9956;51.006;13.670;2023-04-06T23:12:54;16.15;;;14.10;;
19617;SDS011;9956;51.006;13.670;2023-04-06T23:17:54;15.20;;;13.55;;
19617;SDS011;9956;51.006;13.670;2023-04-06T23:22:55;16.20;;;13.85;;
19617;SDS011;9956;51.006;13.670;2023-04-06T23:27:55;18.65;;;14.70;;
19617;SDS011;9956;51.006;13.670;2023-04-06T23:32:56;16.48;;;14.80;;
19617;SDS011;9956;51.006;13.670;2023-04-06T23:37:56;16.55;;;13.82;;
19617;SDS011;9956;51.006;13.670;2023-04-06T23:42:58;15.68;;;13.25;;
19617;SDS011;9956;51.006;13.670;2023-04-06T23:47:58;20.35;;;14.60;;
19617;SDS011;9956;51.006;13.670;2023-04-06T23:52:59;14.57;;;12.90;;
19617;SDS011;9956;51.006;13.670;2023-04-06T23:57:59;15.10;;;13.27;;
